createdAt,value
2018-03-07T00:00:26.911Z,94.55
2018-03-07T00:01:27.548Z,94.74
2018-03-07T00:02:28.320Z,94.74
2018-03-07T00:03:28.895Z,94.74
2018-03-07T00:04:29.538Z,94.55
2018-03-07T00:05:30.099Z,94.84
2018-03-07T00:06:30.728Z,94.36
2018-03-07T00:07:31.352Z,94.17
2018-03-07T00:08:31.928Z,94.65
2018-03-07T00:09:32.507Z,94.93
2018-03-07T00:10:33.089Z,94.84
2018-03-07T00:11:33.672Z,94.65
2018-03-07T00:12:34.299Z,94.26
2018-03-07T00:13:34.880Z,94.55
2018-03-07T00:14:35.454Z,95.12
2018-03-07T00:15:36.034Z,95.03
2018-03-07T00:16:36.609Z,94.93
2018-03-07T00:17:37.187Z,95.12
2018-03-07T00:18:37.821Z,95.12
2018-03-07T00:19:38.449Z,94.74
2018-03-07T00:20:39.029Z,94.93
2018-03-07T00:21:39.610Z,94.46
2018-03-07T00:22:40.340Z,94.65
2018-03-07T00:23:40.923Z,94.60
2018-03-07T00:24:41.497Z,94.41
2018-03-07T00:25:42.076Z,94.41
2018-03-07T00:26:42.652Z,94.41
2018-03-07T00:27:43.234Z,94.41
2018-03-07T00:28:43.861Z,94.84
2018-03-07T00:29:44.491Z,94.60
2018-03-07T00:30:45.176Z,94.55
2018-03-07T00:31:45.850Z,94.22
2018-03-07T00:32:46.631Z,94.60
2018-03-07T00:33:47.208Z,94.31
2018-03-07T00:34:47.783Z,94.60
2018-03-07T00:35:48.363Z,94.51
2018-03-07T00:36:48.950Z,94.60
2018-03-07T00:37:49.531Z,94.60
2018-03-07T00:38:50.147Z,94.41
2018-03-07T00:39:50.727Z,94.98
2018-03-07T00:40:51.306Z,95.41
2018-03-07T00:41:51.884Z,95.07
2018-03-07T00:42:52.463Z,94.98
2018-03-07T00:43:53.092Z,94.65
2018-03-07T00:44:53.669Z,94.51
2018-03-07T00:45:54.248Z,94.79
2018-03-07T00:46:54.872Z,94.46
2018-03-07T00:47:55.450Z,94.26
2018-03-07T00:48:56.026Z,94.41
2018-03-07T00:49:56.652Z,94.41
2018-03-07T00:50:57.229Z,95.27
2018-03-07T00:51:57.804Z,95.46
2018-03-07T00:52:58.384Z,95.65
2018-03-07T00:53:58.964Z,96.13
2018-03-07T00:54:59.543Z,95.56
2018-03-07T00:56:00.125Z,95.46
2018-03-07T00:57:00.705Z,95.94
2018-03-07T00:58:01.285Z,96.56
2018-03-07T00:59:01.917Z,96.37
2018-03-07T01:00:02.497Z,95.84
2018-03-07T01:01:03.075Z,96.32
2018-03-07T01:02:03.655Z,95.70
2018-03-07T01:03:04.233Z,96.61
2018-03-07T01:04:04.813Z,95.94
2018-03-07T01:05:05.442Z,95.84
2018-03-07T01:06:06.068Z,95.84
2018-03-07T01:07:06.643Z,96.61
2018-03-07T01:08:07.220Z,97.90
2018-03-07T01:09:07.796Z,96.99
2018-03-07T01:10:08.421Z,97.04
2018-03-07T01:11:09.003Z,96.70
2018-03-07T01:12:09.581Z,95.89
2018-03-07T01:13:10.154Z,95.46
2018-03-07T01:14:10.785Z,97.52
2018-03-07T01:15:11.360Z,97.90
2018-03-07T01:16:11.939Z,97.94
2018-03-07T01:17:12.517Z,98.71
2018-03-07T01:18:13.095Z,97.71
2018-03-07T01:19:13.681Z,98.52
2018-03-07T01:20:14.293Z,96.37
2018-03-07T01:21:15.021Z,96.13
2018-03-07T01:22:15.596Z,97.08
2018-03-07T01:23:16.181Z,97.94
2018-03-07T01:24:16.759Z,98.57
2018-03-07T01:25:17.342Z,98.52
2018-03-07T01:26:17.919Z,96.32
2018-03-07T01:27:18.496Z,98.09
2018-03-07T01:28:19.079Z,96.51
2018-03-07T01:29:19.855Z,97.75
2018-03-07T01:30:20.434Z,97.71
2018-03-07T01:31:21.019Z,97.75
2018-03-07T01:32:21.646Z,97.28
2018-03-07T01:33:22.226Z,96.70
2018-03-07T01:34:22.805Z,96.51
2018-03-07T01:35:23.383Z,96.42
2018-03-07T01:36:23.965Z,96.51
2018-03-07T01:37:24.594Z,96.99
2018-03-07T01:38:25.176Z,97.47
2018-03-07T01:39:25.752Z,98.52
2018-03-07T01:40:26.330Z,97.08
2018-03-07T01:41:26.910Z,96.99
2018-03-07T01:42:27.491Z,97.85
2018-03-07T01:43:28.063Z,98.33
2018-03-07T01:44:28.644Z,98.71
2018-03-07T01:45:29.222Z,98.04
2018-03-07T01:46:29.802Z,98.42
2018-03-07T01:47:30.380Z,98.61
2018-03-07T01:48:30.957Z,98.52
2018-03-07T01:49:31.588Z,97.47
2018-03-07T01:50:32.216Z,97.47
2018-03-07T01:51:32.799Z,97.37
2018-03-07T01:52:33.378Z,96.99
2018-03-07T01:53:33.961Z,96.70
2018-03-07T01:54:34.586Z,97.56
2018-03-07T01:55:35.160Z,99.19
2018-03-07T01:56:35.742Z,98.33
2018-03-07T01:57:36.315Z,98.33
2018-03-07T01:58:36.892Z,97.75
2018-03-07T01:59:37.470Z,97.85
2018-03-07T02:00:38.101Z,97.85
2018-03-07T02:01:38.680Z,98.33
2018-03-07T02:02:39.257Z,99.09
2018-03-07T02:03:39.831Z,97.56
2018-03-07T02:04:40.405Z,97.37
2018-03-07T02:05:40.986Z,96.42
2018-03-07T02:06:41.614Z,97.85
2018-03-07T02:07:42.192Z,97.85
2018-03-07T02:08:42.770Z,96.61
2018-03-07T02:09:43.346Z,98.13
2018-03-07T02:10:43.927Z,98.61
2018-03-07T02:11:44.553Z,98.52
2018-03-07T02:12:45.135Z,96.89
2018-03-07T02:13:45.712Z,96.42
2018-03-07T02:14:46.291Z,96.51
2018-03-07T02:15:46.874Z,96.99
2018-03-07T02:16:47.455Z,96.70
2018-03-07T02:17:48.034Z,96.80
2018-03-07T02:18:48.613Z,96.42
2018-03-07T02:19:49.245Z,97.56
2018-03-07T02:20:49.825Z,96.70
2018-03-07T02:21:50.403Z,96.70
2018-03-07T02:22:50.984Z,96.42
2018-03-07T02:23:51.611Z,96.42
2018-03-07T02:24:52.190Z,96.22
2018-03-07T02:25:52.770Z,96.42
2018-03-07T02:26:53.352Z,96.61
2018-03-07T02:27:53.931Z,97.08
2018-03-07T02:28:54.559Z,96.99
2018-03-07T02:29:55.135Z,96.89
2018-03-07T02:30:55.715Z,96.32
2018-03-07T02:31:56.289Z,98.42
2018-03-07T02:32:56.869Z,98.61
2018-03-07T02:33:57.491Z,97.18
2018-03-07T02:34:58.068Z,97.18
2018-03-07T02:35:58.642Z,97.28
2018-03-07T02:36:59.287Z,97.47
2018-03-07T02:37:59.848Z,96.80
2018-03-07T02:39:00.581Z,99.19
2018-03-07T02:40:01.196Z,99.09
2018-03-07T02:41:01.772Z,97.85
2018-03-07T02:42:02.401Z,97.37
2018-03-07T02:43:02.983Z,97.18
2018-03-07T02:44:03.559Z,97.47
2018-03-07T02:45:04.140Z,97.08
2018-03-07T02:46:04.718Z,98.42
2018-03-07T02:47:05.451Z,98.80
2018-03-07T02:48:06.030Z,98.33
2018-03-07T02:49:06.615Z,99.48
2018-03-07T02:50:07.190Z,98.90
2018-03-07T02:51:07.771Z,96.99
2018-03-07T02:52:08.345Z,96.99
2018-03-07T02:53:08.979Z,97.94
2018-03-07T02:54:09.547Z,97.37
2018-03-07T02:55:10.181Z,97.37
2018-03-07T02:56:10.814Z,96.56
2018-03-07T02:57:11.395Z,96.56
2018-03-07T02:58:11.966Z,96.37
2018-03-07T02:59:12.545Z,96.32
2018-03-07T03:00:13.121Z,96.42
2018-03-07T03:01:13.757Z,96.27
2018-03-07T03:02:14.378Z,96.70
2018-03-07T03:03:14.950Z,97.13
2018-03-07T03:04:15.526Z,97.03
2018-03-07T03:05:16.111Z,96.70
2018-03-07T03:06:16.724Z,97.52
2018-03-07T03:07:17.304Z,99.23
2018-03-07T03:08:17.880Z,98.08
2018-03-07T03:09:18.461Z,97.42
2018-03-07T03:10:19.040Z,98.71
2018-03-07T03:11:19.618Z,97.32
2018-03-07T03:12:20.196Z,98.23
2018-03-07T03:13:20.824Z,98.61
2018-03-07T03:14:21.401Z,98.28
2018-03-07T03:15:22.027Z,96.37
2018-03-07T03:16:22.607Z,98.18
2018-03-07T03:17:23.185Z,97.80
2018-03-07T03:18:23.765Z,98.42
2018-03-07T03:19:24.345Z,97.32
2018-03-07T03:20:24.923Z,97.32
2018-03-07T03:21:25.502Z,99.04
2018-03-07T03:22:26.232Z,97.42
2018-03-07T03:23:26.811Z,96.84
2018-03-07T03:24:27.389Z,96.56
2018-03-07T03:25:27.968Z,97.32
2018-03-07T03:26:28.548Z,97.13
2018-03-07T03:27:29.126Z,96.66
2018-03-07T03:28:29.704Z,97.61
2018-03-07T03:29:30.282Z,97.52
2018-03-07T03:30:30.859Z,97.52
2018-03-07T03:31:31.433Z,97.71
2018-03-07T03:32:32.860Z,98.66
2018-03-07T03:33:33.440Z,98.85
2018-03-07T03:34:34.016Z,99.04
2018-03-07T03:35:34.592Z,99.62
2018-03-07T03:36:35.167Z,97.89
2018-03-07T03:37:35.942Z,98.37
2018-03-07T03:38:36.519Z,98.37
2018-03-07T03:39:37.146Z,97.03
2018-03-07T03:40:37.722Z,97.99
2018-03-07T03:41:38.298Z,96.66
2018-03-07T03:42:38.877Z,97.32
2018-03-07T03:43:39.458Z,97.42
2018-03-07T03:44:40.034Z,97.03
2018-03-07T03:45:40.625Z,97.42
2018-03-07T03:46:41.187Z,97.52
2018-03-07T03:47:41.815Z,96.46
2018-03-07T03:48:42.394Z,96.94
2018-03-07T03:49:42.969Z,96.46
2018-03-07T03:50:43.548Z,97.32
2018-03-07T03:51:44.126Z,96.66
2018-03-07T03:52:44.706Z,96.56
2018-03-07T03:53:45.285Z,96.46
2018-03-07T03:54:45.864Z,96.56
2018-03-07T03:55:46.493Z,98.18
2018-03-07T03:56:47.122Z,97.80
2018-03-07T03:57:47.701Z,97.61
2018-03-07T03:58:48.286Z,97.32
2018-03-07T03:59:48.862Z,96.27
2018-03-07T04:00:49.441Z,96.37
2018-03-07T04:01:50.018Z,96.94
2018-03-07T04:02:50.649Z,97.03
2018-03-07T04:03:51.228Z,96.84
2018-03-07T04:04:51.809Z,96.17
2018-03-07T04:05:52.386Z,97.42
2018-03-07T04:06:52.966Z,96.37
2018-03-07T04:07:53.539Z,96.46
2018-03-07T04:08:54.116Z,96.27
2018-03-07T04:09:54.692Z,96.46
2018-03-07T04:10:55.268Z,96.37
2018-03-07T04:11:55.844Z,96.46
2018-03-07T04:12:56.420Z,97.32
2018-03-07T04:13:57.151Z,96.46
2018-03-07T04:14:57.729Z,96.27
2018-03-07T04:15:58.303Z,96.37
2018-03-07T04:16:58.928Z,96.94
2018-03-07T04:17:59.508Z,96.66
2018-03-07T04:19:00.083Z,96.84
2018-03-07T04:20:00.659Z,96.37
2018-03-07T04:21:01.289Z,97.99
2018-03-07T04:22:01.866Z,98.18
2018-03-07T04:23:02.447Z,97.89
2018-03-07T04:24:03.027Z,97.52
2018-03-07T04:25:03.601Z,98.75
2018-03-07T04:26:04.382Z,99.52
2018-03-07T04:27:04.963Z,99.23
2018-03-07T04:28:05.534Z,99.33
2018-03-07T04:29:06.167Z,99.52
2018-03-07T04:30:06.748Z,98.75
2018-03-07T04:31:07.324Z,98.37
2018-03-07T04:32:07.903Z,98.57
2018-03-07T04:33:08.484Z,98.08
2018-03-07T04:34:09.063Z,99.43
2018-03-07T04:35:09.644Z,99.99
2018-03-07T04:36:10.273Z,99.23
2018-03-07T04:37:10.845Z,99.33
2018-03-07T04:38:11.422Z,99.52
2018-03-07T04:39:11.999Z,99.43
2018-03-07T04:40:12.578Z,99.04
2018-03-07T04:41:13.208Z,99.80
2018-03-07T04:42:13.781Z,99.33
2018-03-07T04:43:14.365Z,99.99
2018-03-07T04:44:14.942Z,99.99
2018-03-07T04:45:15.517Z,99.23
2018-03-07T04:46:16.096Z,99.33
2018-03-07T04:47:16.674Z,98.75
2018-03-07T04:48:17.303Z,99.14
2018-03-07T04:49:17.883Z,99.43
2018-03-07T04:50:18.457Z,98.37
2018-03-07T04:51:19.086Z,98.47
2018-03-07T04:52:19.664Z,98.47
2018-03-07T04:53:20.246Z,98.57
2018-03-07T04:54:20.823Z,98.28
2018-03-07T04:55:21.403Z,98.18
2018-03-07T04:56:21.984Z,96.75
2018-03-07T04:57:22.562Z,97.32
2018-03-07T04:58:23.142Z,97.89
2018-03-07T04:59:23.720Z,97.71
2018-03-07T05:00:24.299Z,97.32
2018-03-07T05:01:24.881Z,97.99
2018-03-07T05:02:25.510Z,97.13
2018-03-07T05:03:26.088Z,97.80
2018-03-07T05:04:26.670Z,96.84
2018-03-07T05:05:27.298Z,98.47
2018-03-07T05:06:27.871Z,97.47
2018-03-07T05:07:28.454Z,97.71
2018-03-07T05:08:29.026Z,98.28
2018-03-07T05:09:29.654Z,97.89
2018-03-07T05:10:30.301Z,98.75
2018-03-07T05:11:30.809Z,97.13
2018-03-07T05:12:31.388Z,97.32
2018-03-07T05:13:31.968Z,97.89
2018-03-07T05:14:32.546Z,97.71
2018-03-07T05:15:33.124Z,98.57
2018-03-07T05:16:33.700Z,97.99
2018-03-07T05:17:34.275Z,98.28
2018-03-07T05:18:34.850Z,97.32
2018-03-07T05:19:35.428Z,97.37
2018-03-07T05:20:36.013Z,97.42
2018-03-07T05:21:36.634Z,97.75
2018-03-07T05:22:37.212Z,97.89
2018-03-07T05:23:37.994Z,97.66
2018-03-07T05:24:38.570Z,98.57
2018-03-07T05:25:39.202Z,97.32
2018-03-07T05:26:39.782Z,97.32
2018-03-07T05:27:40.364Z,97.13
2018-03-07T05:28:40.940Z,96.94
2018-03-07T05:29:41.516Z,97.99
2018-03-07T05:30:42.095Z,97.71
2018-03-07T05:31:42.675Z,97.80
2018-03-07T05:32:43.253Z,97.42
2018-03-07T05:33:43.827Z,97.23
2018-03-07T05:34:44.405Z,99.23
2018-03-07T05:35:44.984Z,97.99
2018-03-07T05:36:45.563Z,97.75
2018-03-07T05:37:46.188Z,97.52
2018-03-07T05:38:46.816Z,97.37
2018-03-07T05:39:47.395Z,96.46
2018-03-07T05:40:47.973Z,97.37
2018-03-07T05:41:48.599Z,98.57
2018-03-07T05:42:49.178Z,97.61
2018-03-07T05:43:49.757Z,97.32
2018-03-07T05:44:50.332Z,97.47
2018-03-07T05:45:50.910Z,97.52
2018-03-07T05:46:51.488Z,97.99
2018-03-07T05:47:52.064Z,97.42
2018-03-07T05:48:52.693Z,98.28
2018-03-07T05:49:53.280Z,98.57
2018-03-07T05:50:53.852Z,99.23
2018-03-07T05:51:54.434Z,98.47
2018-03-07T05:52:55.013Z,99.23
2018-03-07T05:53:55.586Z,98.18
2018-03-07T05:54:56.166Z,98.85
2018-03-07T05:55:56.742Z,97.99
2018-03-07T05:56:57.367Z,99.90
2018-03-07T05:57:57.996Z,99.23
2018-03-07T05:58:58.573Z,99.52
2018-03-07T05:59:59.149Z,99.99
2018-03-07T06:00:59.728Z,99.43
2018-03-07T06:02:00.303Z,97.61
2018-03-07T06:03:00.878Z,97.80
2018-03-07T06:04:01.454Z,97.71
2018-03-07T06:05:02.030Z,97.71
2018-03-07T06:06:02.606Z,97.61
2018-03-07T06:07:03.180Z,98.66
2018-03-07T06:08:03.754Z,96.84
2018-03-07T06:09:04.329Z,96.37
2018-03-07T06:10:04.998Z,97.27
2018-03-07T06:11:05.576Z,97.56
2018-03-07T06:12:06.151Z,97.52
2018-03-07T06:13:06.728Z,97.42
2018-03-07T06:14:07.352Z,97.71
2018-03-07T06:15:07.928Z,98.08
2018-03-07T06:16:08.504Z,98.37
2018-03-07T06:17:09.078Z,97.61
2018-03-07T06:18:09.704Z,97.32
2018-03-07T06:19:10.277Z,97.37
2018-03-07T06:20:10.851Z,96.80
2018-03-07T06:21:11.424Z,96.94
2018-03-07T06:22:11.998Z,96.66
2018-03-07T06:23:12.574Z,97.52
2018-03-07T06:24:13.151Z,96.42
2018-03-07T06:25:13.727Z,97.52
2018-03-07T06:26:14.300Z,97.08
2018-03-07T06:27:14.923Z,97.03
2018-03-07T06:28:15.497Z,97.37
2018-03-07T06:29:16.072Z,96.51
2018-03-07T06:30:18.153Z,97.18
2018-03-07T06:31:18.779Z,98.75
2018-03-07T06:32:19.355Z,97.52
2018-03-07T06:33:19.980Z,99.23
2018-03-07T06:34:20.555Z,99.14
2018-03-07T06:35:21.134Z,98.94
2018-03-07T06:36:21.709Z,99.52
2018-03-07T06:37:22.282Z,99.99
2018-03-07T06:38:22.860Z,99.99
2018-03-07T06:39:23.436Z,99.99
2018-03-07T06:40:24.011Z,99.62
2018-03-07T06:41:24.627Z,99.99
2018-03-07T06:42:25.200Z,99.04
2018-03-07T06:43:25.778Z,99.43
2018-03-07T06:44:26.357Z,99.90
2018-03-07T06:45:26.929Z,99.80
2018-03-07T06:46:27.658Z,99.90
2018-03-07T06:47:28.128Z,99.33
2018-03-07T06:48:28.700Z,99.99
2018-03-07T06:49:29.277Z,99.99
2018-03-07T06:50:29.853Z,99.99
2018-03-07T06:51:30.427Z,99.04
2018-03-07T06:52:31.002Z,99.99
2018-03-07T06:53:31.577Z,99.90
2018-03-07T06:54:32.150Z,99.90
2018-03-07T06:55:32.723Z,99.99
2018-03-07T06:56:33.346Z,99.99
2018-03-07T06:57:33.922Z,99.62
2018-03-07T06:58:34.548Z,99.80
2018-03-07T06:59:35.123Z,99.99
2018-03-07T07:00:35.696Z,99.71
2018-03-07T07:01:36.277Z,99.62
2018-03-07T07:02:36.846Z,98.94
2018-03-07T07:03:37.419Z,99.52
2018-03-07T07:04:38.044Z,98.94
2018-03-07T07:05:38.619Z,99.33
2018-03-07T07:06:39.194Z,99.14
2018-03-07T07:07:39.767Z,98.94
2018-03-07T07:08:40.347Z,99.43
2018-03-07T07:09:40.918Z,99.33
2018-03-07T07:10:41.540Z,99.23
2018-03-07T07:11:42.117Z,99.33
2018-03-07T07:12:42.692Z,99.04
2018-03-07T07:13:43.270Z,99.52
2018-03-07T07:14:44.045Z,99.99
2018-03-07T07:15:44.772Z,99.99
2018-03-07T07:16:45.421Z,99.62
2018-03-07T07:17:45.924Z,99.99
2018-03-07T07:18:46.496Z,99.99
2018-03-07T07:19:47.118Z,99.99
2018-03-07T07:20:47.692Z,99.80
2018-03-07T07:21:48.269Z,99.23
2018-03-07T07:22:48.845Z,99.62
2018-03-07T07:23:49.420Z,99.99
2018-03-07T07:24:50.002Z,99.14
2018-03-07T07:25:50.570Z,99.33
2018-03-07T07:26:51.145Z,99.52
2018-03-07T07:27:56.770Z,99.62
2018-03-07T07:28:57.343Z,99.99
2018-03-07T07:29:57.947Z,99.33
2018-03-07T07:30:58.492Z,99.71
2018-03-07T07:31:59.068Z,99.71
2018-03-07T07:32:59.747Z,99.23
2018-03-07T07:34:00.267Z,99.23
2018-03-07T07:35:00.889Z,99.99
2018-03-07T07:36:01.463Z,99.80
2018-03-07T07:37:02.043Z,99.85
2018-03-07T07:38:02.614Z,99.99
2018-03-07T07:39:03.240Z,98.85
2018-03-07T07:40:03.814Z,99.80
2018-03-07T07:41:04.394Z,99.90
2018-03-07T07:42:05.025Z,99.99
2018-03-07T07:43:05.596Z,99.33
2018-03-07T07:44:06.170Z,99.99
2018-03-07T07:45:06.744Z,99.80
2018-03-07T07:46:07.319Z,99.90
2018-03-07T07:47:07.895Z,99.99
2018-03-07T07:48:08.471Z,99.99
2018-03-07T07:49:09.053Z,99.99
2018-03-07T07:50:09.627Z,99.99
2018-03-07T07:51:10.202Z,99.99
2018-03-07T07:52:10.777Z,99.99
2018-03-07T07:53:11.350Z,99.99
2018-03-07T07:54:11.975Z,99.99
2018-03-07T07:55:12.598Z,99.57
2018-03-07T07:56:13.222Z,99.99
2018-03-07T07:57:13.798Z,99.99
2018-03-07T07:58:14.371Z,99.99
2018-03-07T07:59:14.946Z,99.99
2018-03-07T08:00:15.519Z,99.99
2018-03-07T08:01:16.099Z,99.99
2018-03-07T08:02:16.672Z,99.99
2018-03-07T08:03:17.273Z,99.99
2018-03-07T08:04:17.861Z,99.99
2018-03-07T08:05:18.434Z,99.99
2018-03-07T08:06:19.008Z,99.99
2018-03-07T08:07:19.585Z,99.99
2018-03-07T08:08:20.203Z,99.90
2018-03-07T08:09:20.778Z,99.99
2018-03-07T08:10:21.356Z,99.99
2018-03-07T08:11:21.980Z,99.99
2018-03-07T08:12:22.605Z,99.99
2018-03-07T08:13:23.230Z,99.99
2018-03-07T08:14:23.803Z,99.99
2018-03-07T08:15:24.380Z,99.99
2018-03-07T08:16:24.956Z,99.99
2018-03-07T08:17:25.532Z,99.80
2018-03-07T08:18:26.107Z,99.99
2018-03-07T08:19:26.681Z,99.99
2018-03-07T08:20:27.255Z,99.99
2018-03-07T08:21:27.829Z,99.99
2018-03-07T08:22:28.404Z,99.99
2018-03-07T08:23:28.980Z,99.99
2018-03-07T08:24:29.552Z,99.99
2018-03-07T08:25:30.129Z,99.99
2018-03-07T08:26:30.753Z,99.99
2018-03-07T08:27:31.326Z,99.99
2018-03-07T08:28:31.900Z,99.99
2018-03-07T08:29:32.522Z,99.99
2018-03-07T08:30:33.099Z,99.62
2018-03-07T08:31:33.828Z,99.90
2018-03-07T08:32:34.398Z,99.43
2018-03-07T08:33:34.974Z,99.62
2018-03-07T08:34:35.548Z,99.99
2018-03-07T08:35:36.122Z,99.99
2018-03-07T08:36:36.697Z,99.99
2018-03-07T08:37:37.271Z,99.99
2018-03-07T08:38:37.845Z,99.99
2018-03-07T08:39:38.419Z,99.99
2018-03-07T08:40:38.994Z,99.99
2018-03-07T08:41:39.570Z,99.99
2018-03-07T08:42:40.145Z,99.99
2018-03-07T08:43:40.722Z,99.99
2018-03-07T08:44:41.298Z,99.99
2018-03-07T08:45:41.923Z,99.99
2018-03-07T08:46:42.499Z,99.99
2018-03-07T08:47:43.124Z,99.99
2018-03-07T08:48:43.699Z,99.99
2018-03-07T08:49:44.272Z,99.99
2018-03-07T08:50:44.846Z,99.99
2018-03-07T08:51:45.472Z,99.99
2018-03-07T08:52:46.051Z,99.99
2018-03-07T08:53:46.625Z,99.99
2018-03-07T08:54:47.211Z,99.99
2018-03-07T08:55:47.775Z,99.43
2018-03-07T08:56:48.400Z,99.99
2018-03-07T08:57:48.977Z,99.99
2018-03-07T08:58:49.551Z,99.99
2018-03-07T08:59:50.127Z,99.99
2018-03-07T09:00:50.751Z,99.99
2018-03-07T09:01:51.327Z,99.99
2018-03-07T09:02:51.913Z,99.99
2018-03-07T09:03:52.538Z,99.99
2018-03-07T09:04:53.115Z,99.99
2018-03-07T09:05:53.690Z,99.99
2018-03-07T09:06:54.317Z,99.99
2018-03-07T09:07:54.891Z,99.99
2018-03-07T09:08:55.470Z,99.99
2018-03-07T09:09:56.041Z,99.99
2018-03-07T09:10:56.617Z,99.99
2018-03-07T09:11:57.193Z,99.99
2018-03-07T09:12:57.767Z,99.99
2018-03-07T09:13:58.343Z,99.99
2018-03-07T09:14:58.963Z,99.99
2018-03-07T09:15:59.540Z,99.99
2018-03-07T09:17:00.118Z,99.99
2018-03-07T09:18:00.697Z,99.95
2018-03-07T09:19:01.321Z,99.99
2018-03-07T09:20:01.981Z,99.99
2018-03-07T09:21:02.524Z,99.99
2018-03-07T09:22:03.099Z,99.76
2018-03-07T09:23:03.676Z,99.99
2018-03-07T09:24:04.253Z,99.76
2018-03-07T09:25:04.829Z,99.99
2018-03-07T09:26:05.413Z,99.99
2018-03-07T09:27:05.983Z,99.99
2018-03-07T09:28:06.558Z,99.66
2018-03-07T09:29:07.135Z,99.48
2018-03-07T09:30:07.712Z,99.66
2018-03-07T09:31:08.288Z,99.48
2018-03-07T09:32:08.863Z,99.76
2018-03-07T09:33:09.443Z,99.99
2018-03-07T09:34:10.016Z,99.38
2018-03-07T09:35:10.594Z,99.57
2018-03-07T09:36:11.217Z,99.28
2018-03-07T09:37:11.842Z,99.19
2018-03-07T09:38:12.416Z,99.57
2018-03-07T09:39:13.041Z,99.48
2018-03-07T09:40:13.617Z,98.80
2018-03-07T09:41:14.195Z,98.80
2018-03-07T09:42:14.769Z,98.80
2018-03-07T09:43:15.342Z,98.80
2018-03-07T09:44:15.921Z,98.80
2018-03-07T09:45:16.493Z,98.90
2018-03-07T09:46:17.073Z,98.99
2018-03-07T09:47:17.650Z,98.99
2018-03-07T09:48:18.225Z,98.99
2018-03-07T09:49:18.802Z,99.09
2018-03-07T09:50:19.377Z,99.09
2018-03-07T09:51:19.953Z,99.19
2018-03-07T09:52:20.530Z,98.71
2018-03-07T09:53:21.109Z,98.61
2018-03-07T09:54:21.686Z,98.71
2018-03-07T09:55:22.271Z,98.52
2018-03-07T09:56:22.947Z,98.42
2018-03-07T09:57:23.464Z,98.42
2018-03-07T09:58:24.042Z,98.52
2018-03-07T09:59:24.617Z,98.90
2018-03-07T10:00:25.198Z,98.71
2018-03-07T10:01:25.774Z,99.09
2018-03-07T10:02:26.401Z,98.23
2018-03-07T10:03:27.027Z,98.33
2018-03-07T10:04:27.620Z,98.42
2018-03-07T10:05:28.181Z,98.13
2018-03-07T10:06:28.757Z,98.42
2018-03-07T10:07:29.335Z,97.66
2018-03-07T10:08:29.910Z,97.75
2018-03-07T10:09:30.486Z,97.94
2018-03-07T10:10:31.062Z,97.85
2018-03-07T10:11:31.639Z,97.85
2018-03-07T10:12:32.214Z,96.61
2018-03-07T10:13:32.791Z,97.08
2018-03-07T10:14:33.400Z,96.03
2018-03-07T10:15:33.944Z,96.70
2018-03-07T10:16:34.546Z,96.89
2018-03-07T10:17:35.241Z,96.51
2018-03-07T10:18:35.865Z,97.28
2018-03-07T10:19:36.442Z,97.18
2018-03-07T10:20:37.110Z,97.37
2018-03-07T10:21:37.688Z,95.75
2018-03-07T10:22:38.267Z,94.70
2018-03-07T10:23:38.893Z,95.65
2018-03-07T10:24:39.470Z,95.17
2018-03-07T10:25:40.046Z,96.61
2018-03-07T10:26:40.634Z,96.32
2018-03-07T10:27:41.199Z,96.61
2018-03-07T10:28:41.777Z,96.56
2018-03-07T10:29:42.389Z,95.03
2018-03-07T10:30:42.966Z,95.65
2018-03-07T10:31:43.540Z,96.75
2018-03-07T10:32:44.115Z,95.61
2018-03-07T10:33:44.699Z,96.32
2018-03-07T10:34:45.271Z,96.66
2018-03-07T10:35:45.896Z,95.17
2018-03-07T10:36:46.520Z,95.65
2018-03-07T10:37:47.097Z,96.03
2018-03-07T10:38:47.673Z,95.46
2018-03-07T10:39:48.251Z,94.51
2018-03-07T10:40:48.827Z,93.84
2018-03-07T10:41:49.553Z,94.51
2018-03-07T10:42:50.133Z,95.94
2018-03-07T10:43:50.709Z,95.94
2018-03-07T10:44:51.287Z,96.42
2018-03-07T10:45:51.866Z,96.27
2018-03-07T10:46:52.440Z,96.22
2018-03-07T10:47:53.016Z,96.56
2018-03-07T10:48:53.595Z,96.75
2018-03-07T10:49:54.180Z,96.66
2018-03-07T10:50:54.748Z,96.66
2018-03-07T10:51:55.326Z,96.84
2018-03-07T10:52:55.950Z,96.66
2018-03-07T10:53:56.527Z,96.56
2018-03-07T10:54:57.102Z,96.18
2018-03-07T10:55:57.680Z,96.94
2018-03-07T10:56:58.406Z,96.47
2018-03-07T10:57:58.981Z,96.37
2018-03-07T10:58:59.606Z,96.47
2018-03-07T11:00:00.184Z,96.66
2018-03-07T11:01:00.759Z,96.47
2018-03-07T11:02:01.335Z,95.79
2018-03-07T11:03:01.918Z,95.70
2018-03-07T11:04:02.486Z,97.04
2018-03-07T11:05:03.060Z,96.37
2018-03-07T11:06:03.639Z,96.27
2018-03-07T11:07:04.216Z,95.89
2018-03-07T11:08:04.942Z,95.41
2018-03-07T11:09:05.518Z,95.98
2018-03-07T11:10:06.094Z,96.18
2018-03-07T11:11:06.670Z,96.47
2018-03-07T11:12:07.255Z,96.08
2018-03-07T11:13:07.824Z,95.70
2018-03-07T11:14:08.402Z,95.51
2018-03-07T11:15:09.030Z,95.79
2018-03-07T11:16:09.657Z,95.70
2018-03-07T11:17:10.235Z,95.98
2018-03-07T11:18:10.814Z,96.47
2018-03-07T11:19:11.391Z,96.66
2018-03-07T11:20:11.967Z,96.47
2018-03-07T11:21:12.544Z,96.27
2018-03-07T11:22:13.128Z,95.98
2018-03-07T11:23:13.704Z,95.79
2018-03-07T11:24:14.274Z,96.56
2018-03-07T11:25:14.855Z,95.98
2018-03-07T11:26:15.426Z,96.56
2018-03-07T11:27:16.052Z,96.37
2018-03-07T11:28:16.629Z,96.37
2018-03-07T11:29:17.205Z,96.47
2018-03-07T11:30:17.787Z,95.89
2018-03-07T11:31:18.412Z,95.61
2018-03-07T11:32:18.989Z,95.79
2018-03-07T11:33:19.566Z,95.79
2018-03-07T11:34:20.152Z,95.32
2018-03-07T11:35:20.719Z,94.93
2018-03-07T11:36:21.301Z,94.84
2018-03-07T11:37:21.879Z,93.88
2018-03-07T11:38:22.507Z,91.88
2018-03-07T11:39:23.083Z,90.25
2018-03-07T11:40:23.660Z,91.49
2018-03-07T11:41:24.240Z,91.68
2018-03-07T11:42:24.816Z,92.54
2018-03-07T11:43:25.441Z,91.68
2018-03-07T11:44:26.020Z,90.25
2018-03-07T11:45:26.645Z,88.62
2018-03-07T11:46:27.222Z,89.01
2018-03-07T11:47:27.798Z,88.53
2018-03-07T11:48:28.528Z,90.63
2018-03-07T11:49:29.100Z,92.93
2018-03-07T11:50:29.681Z,93.79
2018-03-07T11:51:30.257Z,93.79
2018-03-07T11:52:30.834Z,93.69
2018-03-07T11:53:31.408Z,91.97
2018-03-07T11:54:31.985Z,89.81
2018-03-07T11:55:32.563Z,88.76
2018-03-07T11:56:33.140Z,88.34
2018-03-07T11:57:33.719Z,88.38
2018-03-07T11:58:34.346Z,88.67
2018-03-07T11:59:34.922Z,88.43
2018-03-07T12:00:35.506Z,89.62
2018-03-07T12:01:36.075Z,90.96
2018-03-07T12:02:36.654Z,90.92
2018-03-07T12:03:37.280Z,91.11
2018-03-07T12:04:37.907Z,91.06
2018-03-07T12:05:38.486Z,91.83
2018-03-07T12:06:39.063Z,92.64
2018-03-07T12:07:39.642Z,92.21
2018-03-07T12:08:40.261Z,90.10
2018-03-07T12:09:40.841Z,84.46
2018-03-07T12:10:41.417Z,82.54
2018-03-07T12:11:41.993Z,81.68
2018-03-07T12:12:42.570Z,79.49
2018-03-07T12:13:43.147Z,79.49
2018-03-07T12:14:43.726Z,79.20
2018-03-07T12:15:44.352Z,82.74
2018-03-07T12:16:44.929Z,80.82
2018-03-07T12:17:45.508Z,84.65
2018-03-07T12:18:46.086Z,86.08
2018-03-07T12:19:46.662Z,84.55
2018-03-07T12:20:47.242Z,83.89
2018-03-07T12:21:47.870Z,85.41
2018-03-07T12:22:48.496Z,87.71
2018-03-07T12:23:49.071Z,89.15
2018-03-07T12:24:49.648Z,88.67
2018-03-07T12:25:50.224Z,90.10
2018-03-07T12:26:50.800Z,88.67
2018-03-07T12:27:51.380Z,86.57
2018-03-07T12:28:51.953Z,86.37
2018-03-07T12:29:52.530Z,84.46
2018-03-07T12:30:53.160Z,85.41
2018-03-07T12:31:53.738Z,88.86
2018-03-07T12:32:54.398Z,88.48
2018-03-07T12:33:54.942Z,85.32
2018-03-07T12:34:55.518Z,84.08
2018-03-07T12:35:56.097Z,83.89
2018-03-07T12:36:56.675Z,86.66
2018-03-07T12:37:57.251Z,80.73
2018-03-07T12:38:57.829Z,78.81
2018-03-07T12:39:58.449Z,85.03
2018-03-07T12:40:59.024Z,86.18
2018-03-07T12:41:59.651Z,86.37
2018-03-07T12:43:00.228Z,82.54
2018-03-07T12:44:00.806Z,84.75
2018-03-07T12:45:01.385Z,87.14
2018-03-07T12:46:01.962Z,88.00
2018-03-07T12:47:02.536Z,86.66
2018-03-07T12:48:03.113Z,87.43
2018-03-07T12:49:03.694Z,87.52
2018-03-07T12:50:04.270Z,85.32
2018-03-07T12:51:04.910Z,86.28
2018-03-07T12:52:05.521Z,83.98
2018-03-07T12:53:06.151Z,84.36
2018-03-07T12:54:06.770Z,81.97
2018-03-07T12:55:07.348Z,81.40
2018-03-07T12:56:07.926Z,81.88
2018-03-07T12:57:08.508Z,80.73
2018-03-07T12:58:09.083Z,85.22
2018-03-07T12:59:09.660Z,85.13
2018-03-07T13:00:10.238Z,85.13